Terminal Aerodrome Forecast
Issued by NWS

Home | Current Version | Previous Version | Text Only | Print | Product List | Glossary On
Versions: 1 2 3 4 5 6 7 8 9 10 11 12
000
FTUS45 KABQ 271740
TAFAEG
TAF
KAEG 271740Z 2718/2818 27015G25KT P6SM SCT080
     FM272030 30017G26KT P6SM VCSH BKN090
      TEMPO 2721/2801 VRB19G30KT
     FM280200 32011KT P6SM SCT100 SCT150
     FM280900 VRB05KT P6SM FEW120=

USA.gov is the U.S. government's official web portal to all federal, state and local government web resources and services.